Hlavní strana
METAR-TAF:

METAR-TAF

Letiště :

Brunej, Brunej

zeměpisná šířka: 04-56N, zeměpisná délka: 114-56E, výška: 22 m

Aktuální stav počasí

Zpráva byla vytvořena před 39 minutami, v 18:30 UTC
Jižní vítr 1 kt
Teplota 27°C
Vlhkost vzduchu 94%
Tlak 1008 hPa
Viditelnost: 8000 m
Skoro jasno ve výšce 1500 ft
Oblačno až skoro zataženo ve výšce 14000 ft

METAR: WBSB 151830Z 17001KT 8000 FEW015 BKN140 27/26 Q1008 NOSIG

Čas: 03:09 (19:09 UTC)

Předpověď počasí

Zpráva byla vytvořena před 2 hodinami a 9 minutami, v 17:00 UTC
Předpověď platná od 15 v 18 UTC do 17 v 00 UTC
Jihojihozápadní vítr 2 kt
Viditelnost: 8000 m
Skoro jasno ve výšce 1500 ft
Změna
od 16 v 04 UTC do 16 v 06 UTC
Západoseverozápadní vítr 8 kt
Skoro jasno ve výšce 1700 ft

TAF: WBSB 151700Z 1518/1700 20002KT 8000 FEW015 BECMG 1604/1606 30008KT FEW017

Stav a předpovědi počasí z více než 4 000 letišť (zprávy METAR a TAF).

Červené a žluté tečky na mapě představují dostupné meteorologické stanice.

Když kurzor umístíte na tečku, zobrazí se název stanice.

Pak kliknutím zobrazíte stav a předpověď počasí.

Chcete-li změnit mapu, kliknutím na zelené tlačítko se znaménkem +mapu přiblížíte, kliknutím na zelené tlačítko se znaménkem – mapu oddálíte a kliknutím na zelené šipky přejdete na sousední mapy.


METAR-TAF: